This is the latest recevied weather packets stored in our database for station/object KO4DYK. If no packets are shown the sender has not sent any weather packets the latest 10 day(s).
| Time | Temp. | Humidity | Pressure | Rain* | Wind** | Luminosity | Snow |
|---|---|---|---|---|---|---|---|
| 1788374591 | 36.67° C | 53% | 1018.6 hPa | 0 mm | - | 136 W/m² | - |
| 1788374287 | 35.56° C | 55% | 1018.7 hPa | 0 mm | - | 284 W/m² | - |
| 1788373983 | 35° C | 53% | 1018.7 hPa | 0 mm | - | 203 W/m² | - |
| 1788373679 | 35.56° C | 53% | 1018.8 hPa | 0 mm | - | 195 W/m² | - |
| 1788373375 | 35.56° C | 52% | 1019 hPa | 0 mm | - | 144 W/m² | - |
| 1788373072 | 35° C | 59% | 1018.8 hPa | 0 mm | - | 305 W/m² | - |
| 1788372771 | 35° C | 55% | 1019 hPa | 0 mm | - | 131 W/m² | - |
| 1788372466 | 35.56° C | 53% | 1018.8 hPa | 0 mm | - | 121 W/m² | - |
| 1788372162 | 37.78° C | 49% | 1019.1 hPa | 0 mm | - | 719 W/m² | - |
| 1788371856 | 37.22° C | 49% | 1019.3 hPa | 0 mm | - | 752 W/m² | - |
| 1788371552 | 37.78° C | 48% | 1019.3 hPa | 0 mm | - | 652 W/m² | - |
| 1788371248 | 37.22° C | 50% | 1019.4 hPa | 0 mm | - | 635 W/m² | - |
| 1788370944 | 36.67° C | 52% | 1019.5 hPa | 0 mm | - | 193 W/m² | - |
| 1788370640 | 36.11° C | 55% | 1019.7 hPa | 0 mm | - | 277 W/m² | - |
| 1788370339 | 36.11° C | 52% | 1019.6 hPa | 0 mm | - | 155 W/m² | - |
| 1788370034 | 35.56° C | 59% | 1019.8 hPa | 0 mm | - | 707 W/m² | - |
| 1788369734 | 35° C | 57% | 1019.9 hPa | 0 mm | - | 150 W/m² | - |
| 1788369429 | 34.44° C | 67% | 1019.8 hPa | 0 mm | - | 677 W/m² | - |
| 1788369124 | 35° C | 65% | 1020 hPa | 0 mm | - | 139 W/m² | - |
| 1788368820 | 35.56° C | 63% | 1020 hPa | 0 mm | - | 111 W/m² | - |
| 1788368515 | 35.56° C | 56% | 1020.1 hPa | 0 mm | - | 122 W/m² | - |
| 1788368210 | 35.56° C | 58% | 1020.2 hPa | 0 mm | - | 131 W/m² | - |
| 1788367910 | 35.56° C | 57% | 1020.3 hPa | 0 mm | - | 182 W/m² | - |
| 1788367605 | 35° C | 57% | 1020.4 hPa | 0 mm | - | 202 W/m² | - |
| 1788367304 | 34.44° C | 58% | 1020.3 hPa | 0 mm | - | 185 W/m² | - |
* Rain latest hour (hover to see other rain measurements)
** Current wind speed in m/s (hover to see current wind gust speed)